Time;durP1;ratioP1;P1;durP2;ratioP2;P2;SDS_P1;SDS_P2;PMS_P1;PMS_P2;Temp;Humidity;BMP_temperature;BMP_pressure;BME280_temperature;BME280_humidity;BME280_pressure;Samples;Min_cycle;Max_cycle;Signal;HPM_P1;HPM_P2
2022/01/16 00:04:43;;;;;;;;;;;2.40;99.90;;;;;;5072454;28;20067;-72
2022/01/16 00:07:08;;;;;;;0.80;0.80;;;2.40;99.90;;;;;;5071634;28;19948;-73
2022/01/16 00:09:35;;;;;;;1.23;0.77;;;2.40;99.90;;;;;;5072049;28;20479;-73
2022/01/16 00:12:05;;;;;;;1.67;0.93;;;2.40;99.90;;;;;;5071492;28;20495;-73
2022/01/16 00:14:31;;;;;;;0.73;0.73;;;2.40;99.90;;;;;;5071690;28;20035;-73
2022/01/16 00:16:58;;;;;;;1.08;0.70;;;2.50;99.90;;;;;;5071724;28;20053;-73
2022/01/16 00:19:24;;;;;;;0.50;0.50;;;2.50;99.90;;;;;;5072107;28;20028;-73
2022/01/16 00:21:51;;;;;;;1.92;0.70;;;2.50;99.90;;;;;;5076011;28;20024;-73
2022/01/16 00:24:16;;;;;;;2.00;0.70;;;2.50;99.90;;;;;;5057776;28;20073;-72
2022/01/16 00:26:42;;;;;;;1.08;0.80;;;2.50;99.90;;;;;;5075579;28;20024;-70
2022/01/16 00:29:09;;;;;;;0.80;0.80;;;2.50;99.90;;;;;;5075549;28;20044;-70
2022/01/16 00:31:37;;;;;;;0.80;0.80;;;2.50;99.90;;;;;;5075949;28;20036;-70
2022/01/16 00:34:04;;;;;;;0.50;0.50;;;2.50;99.90;;;;;;5075320;28;20024;-70
2022/01/16 00:36:30;;;;;;;0.50;0.50;;;2.60;99.90;;;;;;5075354;28;20024;-70
2022/01/16 00:38:57;;;;;;;2.53;0.70;;;2.60;99.90;;;;;;5075122;28;20051;-70
2022/01/16 00:41:23;;;;;;;0.60;0.60;;;2.60;99.90;;;;;;5075585;28;20028;-70
2022/01/16 00:43:50;;;;;;;0.70;0.70;;;2.60;99.90;;;;;;5075168;28;20039;-70
2022/01/16 00:46:17;;;;;;;0.60;0.60;;;2.60;99.90;;;;;;5057302;28;20028;-70
2022/01/16 00:48:42;;;;;;;1.67;0.73;;;2.60;99.90;;;;;;5075055;28;20534;-70
2022/01/16 00:51:08;;;;;;;0.60;0.60;;;2.60;99.90;;;;;;5075106;28;20070;-70
2022/01/16 00:53:34;;;;;;;0.60;0.60;;;2.60;99.90;;;;;;5075016;28;20506;-70
2022/01/16 00:56:00;;;;;;;0.82;0.80;;;2.60;99.90;;;;;;5075160;28;20040;-70
2022/01/16 00:58:26;;;;;;;0.70;0.70;;;2.70;99.90;;;;;;5075135;28;20483;-70
2022/01/16 01:00:52;;;;;;;2.15;0.82;;;2.60;99.90;;;;;;5074914;28;20032;-70
2022/01/16 01:03:18;;;;;;;1.27;0.60;;;2.60;99.90;;;;;;5074749;28;20024;-70
2022/01/16 01:05:44;;;;;;;0.93;0.70;;;2.60;99.90;;;;;;5074671;28;20020;-70
2022/01/16 01:08:10;;;;;;;0.60;0.50;;;2.60;99.90;;;;;;5074696;28;20040;-70
2022/01/16 01:10:39;;;;;;;1.25;0.80;;;2.60;99.90;;;;;;5074657;28;20016;-70
2022/01/16 01:13:12;;;;;;;0.63;0.60;;;2.60;99.90;;;;;;5074840;28;20036;-72
2022/01/16 01:15:46;;;;;;;2.28;0.70;;;2.60;99.90;;;;;;5074750;28;20526;-71
2022/01/16 01:18:12;;;;;;;1.73;0.60;;;2.60;99.90;;;;;;5074919;28;20016;-71
2022/01/16 01:20:40;;;;;;;2.83;0.70;;;2.60;99.90;;;;;;5074871;28;20048;-71
2022/01/16 01:23:06;;;;;;;0.68;0.68;;;2.60;99.90;;;;;;5074582;28;20080;-71
2022/01/16 01:25:32;;;;;;;0.80;0.77;;;2.60;99.90;;;;;;5074362;28;20465;-71
2022/01/16 01:27:58;;;;;;;1.25;0.50;;;2.60;99.90;;;;;;5074114;28;20045;-71
2022/01/16 01:30:24;;;;;;;0.90;0.60;;;2.60;99.90;;;;;;5074337;28;20107;-71
2022/01/16 01:32:53;;;;;;;0.60;0.60;;;2.60;99.90;;;;;;5073284;28;20043;-71
2022/01/16 01:35:18;;;;;;;0.75;0.60;;;2.60;99.90;;;;;;5074574;28;20112;-70
2022/01/16 01:37:45;;;;;;;0.50;0.50;;;2.60;99.90;;;;;;5073951;28;20099;-70
2022/01/16 01:40:21;;;;;;;2.30;0.60;;;2.50;99.90;;;;;;5074598;28;20040;-71
2022/01/16 01:51:27;;;;;;;1.15;0.75;;;2.50;99.90;;;;;;5074579;28;20036;-71
2022/01/16 01:53:55;;;;;;;0.85;0.52;;;2.60;99.90;;;;;;5073972;28;20025;-71
2022/01/16 01:56:23;;;;;;;0.75;0.50;;;2.50;99.90;;;;;;5056062;28;20020;-72
2022/01/16 01:58:54;;;;;;;1.33;0.70;;;2.60;99.90;;;;;;5073735;28;20027;-72
2022/01/16 02:01:20;;;;;;;1.98;0.68;;;2.60;99.90;;;;;;5074171;28;20443;-71
2022/01/16 02:03:48;;;;;;;0.57;0.50;;;2.60;99.90;;;;;;5073672;28;20121;-71
2022/01/16 02:06:24;;;;;;;0.60;0.60;;;2.60;99.90;;;;;;5074069;28;20025;-71
2022/01/16 02:08:52;;;;;;;1.75;0.50;;;2.70;99.90;;;;;;5073494;28;20122;-71
2022/01/16 02:11:20;;;;;;;0.75;0.63;;;2.60;99.90;;;;;;5073687;28;20028;-71
2022/01/16 02:53:36;;;;;;;2.65;0.70;;;3.10;99.90;;;;;;5072542;28;20140;-71
2022/01/16 02:56:03;;;;;;;0.50;0.50;;;3.10;99.90;;;;;;5072669;28;20545;-72
2022/01/16 02:58:28;;;;;;;2.13;0.60;;;3.10;99.90;;;;;;5072576;28;20580;-71
2022/01/16 03:00:54;;;;;;;0.50;0.50;;;3.10;99.90;;;;;;5072589;28;20099;-73
2022/01/16 03:36:59;;;;;;;0.50;0.50;;;3.30;99.90;;;;;;5830454;23;20068;-68
2022/01/16 03:39:26;;;;;;;0.70;0.60;;;3.30;99.90;;;;;;5072028;28;20028;-68
2022/01/16 03:41:52;;;;;;;0.52;0.52;;;3.30;99.90;;;;;;5071792;28;20020;-68
2022/01/16 03:44:19;;;;;;;0.50;0.50;;;3.30;99.90;;;;;;5072249;28;20020;-69
2022/01/16 03:46:44;;;;;;;0.50;0.50;;;3.40;99.90;;;;;;5073043;28;20498;-68
2022/01/16 03:49:12;;;;;;;0.52;0.52;;;3.40;99.90;;;;;;5091073;28;20040;-68
2022/01/16 03:51:39;;;;;;;0.50;0.50;;;3.40;99.90;;;;;;5092435;28;20032;-68
2022/01/16 03:54:06;;;;;;;0.60;0.60;;;3.40;99.90;;;;;;5091696;28;20052;-69
2022/01/16 03:56:32;;;;;;;0.50;0.50;;;3.40;99.90;;;;;;5092048;28;20104;-69
2022/01/16 03:58:58;;;;;;;0.60;0.60;;;3.40;99.90;;;;;;5092188;28;20068;-69
2022/01/16 04:01:24;;;;;;;0.55;0.50;;;3.40;99.90;;;;;;5092112;28;20024;-69
2022/01/16 04:03:51;;;;;;;0.60;0.60;;;3.40;99.90;;;;;;5092161;28;20020;-69
2022/01/16 04:06:19;;;;;;;0.50;0.50;;;3.50;99.90;;;;;;5092143;28;20032;-69
2022/01/16 04:08:46;;;;;;;0.50;0.50;;;3.50;99.90;;;;;;5091885;28;20487;-68
2022/01/16 04:11:12;;;;;;;0.50;0.50;;;3.50;99.90;;;;;;5091994;28;20031;-69
2022/01/16 04:13:47;;;;;;;0.50;0.50;;;3.50;99.90;;;;;;5092321;28;20028;-69
2022/01/16 04:16:12;;;;;;;0.50;0.50;;;3.50;99.90;;;;;;5091897;28;20506;-69
2022/01/16 04:18:38;;;;;;;0.65;0.65;;;3.60;99.90;;;;;;5092238;28;20036;-69
2022/01/16 04:21:04;;;;;;;0.60;0.60;;;3.60;99.90;;;;;;5092015;28;20356;-69
2022/01/16 04:23:30;;;;;;;0.50;0.50;;;3.60;99.90;;;;;;5091873;28;20089;-69
2022/01/16 04:25:56;;;;;;;0.60;0.60;;;3.60;99.90;;;;;;5091949;28;20470;-69
2022/01/16 04:28:24;;;;;;;0.60;0.60;;;3.60;99.90;;;;;;5091912;28;20433;-69
2022/01/16 04:30:54;;;;;;;0.70;0.70;;;3.60;99.90;;;;;;5092068;28;20028;-69
2022/01/16 04:33:20;;;;;;;0.63;0.50;;;3.60;99.90;;;;;;5091688;28;20028;-69
2022/01/16 04:35:46;;;;;;;0.50;0.50;;;3.60;99.90;;;;;;5092025;28;20064;-68
2022/01/16 04:38:12;;;;;;;0.50;0.50;;;3.60;99.90;;;;;;5091331;28;20101;-68
2022/01/16 04:43:47;;;;;;;0.50;0.50;;;3.60;99.90;;;;;;5091780;28;20039;-69
2022/01/16 04:43:47;;;;;;;0.85;0.60;;;3.60;99.90;;;;;;5091528;28;20111;-69
2022/01/16 04:46:18;;;;;;;0.50;0.50;;;3.70;99.90;;;;;;5091505;28;20478;-69
2022/01/16 04:48:44;;;;;;;0.73;0.50;;;3.70;99.90;;;;;;5091452;28;20465;-69
2022/01/16 04:51:10;;;;;;;0.50;0.50;;;3.70;99.90;;;;;;5091747;28;20048;-69
2022/01/16 04:53:36;;;;;;;0.50;0.50;;;3.70;99.90;;;;;;5091708;28;20051;-69
2022/01/16 04:56:03;;;;;;;0.50;0.50;;;3.80;99.90;;;;;;5091448;28;20489;-69
2022/01/16 04:58:29;;;;;;;0.40;0.40;;;3.80;99.90;;;;;;5090262;28;20125;-69
2022/01/16 05:00:55;;;;;;;0.90;0.75;;;3.80;99.90;;;;;;5091672;28;20028;-69
2022/01/16 05:03:25;;;;;;;0.60;0.60;;;3.80;99.90;;;;;;5091684;28;20024;-69
2022/01/16 05:05:51;;;;;;;0.80;0.80;;;3.80;99.90;;;;;;5091795;28;20024;-69
2022/01/16 05:08:17;;;;;;;0.55;0.55;;;3.80;99.90;;;;;;5094583;28;20157;-69
2022/01/16 05:10:43;;;;;;;1.33;0.60;;;3.80;99.90;;;;;;5095154;28;20020;-69
2022/01/16 05:18:45;;;;;;;0.50;0.50;;;3.90;99.90;;;;;;5095254;28;20074;-69
2022/01/16 05:21:11;;;;;;;0.50;0.50;;;3.90;99.90;;;;;;5094782;28;20028;-69
2022/01/16 05:23:37;;;;;;;0.60;0.60;;;3.90;99.90;;;;;;5093494;28;20062;-69
2022/01/16 05:26:04;;;;;;;0.50;0.50;;;3.90;99.90;;;;;;5094772;28;20020;-69
2022/01/16 05:28:31;;;;;;;0.60;0.60;;;3.90;99.90;;;;;;5094943;28;20032;-69
2022/01/16 05:30:57;;;;;;;0.60;0.60;;;3.90;99.90;;;;;;5095034;28;20125;-70
2022/01/16 05:33:23;;;;;;;0.60;0.60;;;3.90;99.90;;;;;;5094781;28;20024;-69
2022/01/16 05:35:49;;;;;;;0.60;0.60;;;3.90;99.90;;;;;;5094827;28;20027;-68
2022/01/16 05:38:14;;;;;;;0.50;0.50;;;3.90;99.90;;;;;;5094245;28;20056;-69
2022/01/16 05:40:40;;;;;;;0.60;0.60;;;3.80;99.90;;;;;;5094163;28;20428;-71
2022/01/16 05:43:07;;;;;;;1.30;0.73;;;3.90;99.90;;;;;;5094247;28;20028;-72
2022/01/16 05:45:32;;;;;;;0.82;0.60;;;5.60;99.90;;;;;;5094366;28;20105;-74
2022/01/16 05:47:58;;;;;;;0.70;0.70;;;5.60;99.90;;;;;;5073739;28;20064;-72
2022/01/16 05:50:24;;;;;;;1.17;0.50;;;5.20;99.90;;;;;;5073498;28;20024;-73
2022/01/16 05:52:50;;;;;;;0.63;0.57;;;4.90;99.90;;;;;;5073881;28;20029;-72
2022/01/16 05:55:17;;;;;;;0.50;0.50;;;4.60;99.90;;;;;;5073798;28;20043;-72
2022/01/16 05:57:44;;;;;;;0.40;0.40;;;4.50;99.90;;;;;;5073774;28;20016;-72
2022/01/16 06:00:11;;;;;;;0.68;0.68;;;4.40;99.90;;;;;;5073341;28;20032;-70
2022/01/16 06:02:37;;;;;;;0.82;0.82;;;4.30;99.90;;;;;;5080089;28;20384;-70
2022/01/16 06:05:04;;;;;;;0.50;0.50;;;4.30;99.90;;;;;;5073228;28;20115;-70
2022/01/16 06:07:30;;;;;;;0.60;0.60;;;4.20;99.90;;;;;;5074399;28;20044;-70
2022/01/16 06:09:56;;;;;;;0.82;0.82;;;4.20;99.90;;;;;;5075034;28;20016;-70
2022/01/16 06:12:22;;;;;;;0.57;0.57;;;4.20;99.90;;;;;;5073399;28;20099;-71
2022/01/16 06:14:48;;;;;;;0.47;0.47;;;4.20;99.90;;;;;;5073250;28;20103;-70
2022/01/16 06:17:13;;;;;;;0.60;0.60;;;4.10;99.90;;;;;;5072703;28;20103;-70
2022/01/16 06:19:39;;;;;;;0.55;0.55;;;4.10;99.90;;;;;;5072950;28;20025;-70
2022/01/16 06:22:05;;;;;;;1.05;0.50;;;4.10;99.90;;;;;;5072984;28;20070;-70
2022/01/16 06:24:31;;;;;;;0.55;0.55;;;4.10;99.90;;;;;;5073146;28;20024;-69
2022/01/16 06:26:57;;;;;;;0.63;0.63;;;4.10;99.90;;;;;;5073407;28;20055;-68
2022/01/16 06:29:23;;;;;;;0.93;0.50;;;4.10;99.90;;;;;;5073428;28;20043;-68
2022/01/16 06:31:49;;;;;;;0.50;0.50;;;4.10;99.90;;;;;;5073608;28;20055;-69
2022/01/16 06:34:15;;;;;;;0.50;0.50;;;4.20;99.90;;;;;;5073013;28;20436;-68
2022/01/16 06:36:41;;;;;;;0.65;0.65;;;4.20;99.90;;;;;;5072940;28;20097;-69
2022/01/16 06:39:09;;;;;;;7.30;4.75;;;4.20;99.90;;;;;;5073228;28;20107;-68
2022/01/16 06:41:36;;;;;;;1.10;1.00;;;4.20;99.90;;;;;;5073322;28;20041;-68
2022/01/16 06:44:02;;;;;;;0.60;0.60;;;4.10;99.90;;;;;;5073143;28;20021;-68
2022/01/16 06:46:28;;;;;;;0.70;0.70;;;4.10;99.90;;;;;;5073225;28;20028;-68
2022/01/16 06:48:54;;;;;;;0.85;0.85;;;4.10;99.90;;;;;;5072973;28;20036;-68
2022/01/16 06:51:21;;;;;;;1.70;1.60;;;4.10;99.90;;;;;;5073109;28;20047;-68
2022/01/16 06:53:48;;;;;;;0.90;0.90;;;4.10;99.90;;;;;;5072761;28;20024;-68
2022/01/16 06:56:15;;;;;;;14.18;5.28;;;4.10;99.90;;;;;;5072978;28;20054;-69
2022/01/16 06:58:41;;;;;;;1.75;1.00;;;4.30;99.90;;;;;;5071517;28;20021;-68
2022/01/16 07:01:07;;;;;;;0.60;0.60;;;5.10;99.90;;;;;;5072739;28;20099;-68
2022/01/16 07:03:33;;;;;;;1.05;0.70;;;5.10;99.90;;;;;;5073018;28;20170;-70
2022/01/16 07:06:00;;;;;;;0.40;0.40;;;4.80;99.90;;;;;;5072880;28;20475;-71
2022/01/16 07:08:26;;;;;;;0.50;0.50;;;4.60;99.90;;;;;;5072783;28;20040;-71
2022/01/16 07:10:56;;;;;;;0.50;0.50;;;4.50;99.90;;;;;;5072860;28;20027;-70
2022/01/16 07:13:23;;;;;;;0.50;0.50;;;4.40;99.90;;;;;;5072392;28;20025;-70
2022/01/16 07:15:49;;;;;;;1.10;0.50;;;4.50;99.90;;;;;;5072465;28;20052;-70
2022/01/16 07:18:16;;;;;;;0.40;0.40;;;4.40;99.90;;;;;;5072408;28;20031;-70
2022/01/16 07:20:43;;;;;;;0.52;0.50;;;4.40;99.90;;;;;;5072482;28;20514;-70
2022/01/16 07:23:09;;;;;;;8.80;4.10;;;4.30;99.90;;;;;;5072091;28;20024;-74
2022/01/16 07:25:36;;;;;;;6.20;3.58;;;4.30;99.90;;;;;;5072622;28;20040;-70
2022/01/16 07:28:02;;;;;;;2.58;2.38;;;4.30;99.90;;;;;;5071747;28;20143;-69
2022/01/16 07:30:28;;;;;;;2.67;2.03;;;4.30;99.90;;;;;;5076408;28;20404;-70
2022/01/16 07:32:53;;;;;;;0.90;0.90;;;4.20;99.90;;;;;;5071839;28;20073;-68
2022/01/16 07:35:19;;;;;;;1.13;1.10;;;4.20;99.90;;;;;;5071778;28;20028;-71
2022/01/16 07:37:46;;;;;;;0.68;0.68;;;4.20;99.90;;;;;;5072974;28;20045;-68
2022/01/16 07:40:16;;;;;;;0.70;0.70;;;4.20;99.90;;;;;;5075974;28;20035;-68
2022/01/16 07:42:42;;;;;;;0.80;0.80;;;4.10;99.90;;;;;;5092097;28;20020;-68
2022/01/16 07:45:08;;;;;;;1.80;0.60;;;4.10;99.90;;;;;;5079727;28;20051;-69
2022/01/16 07:47:34;;;;;;;1.17;0.73;;;4.20;99.90;;;;;;5071848;28;20028;-72
2022/01/16 07:50:01;;;;;;;0.70;0.70;;;4.60;99.90;;;;;;5072218;28;20048;-67
2022/01/16 07:52:26;;;;;;;0.60;0.60;;;4.70;99.90;;;;;;5072243;28;20029;-69
2022/01/16 07:54:52;;;;;;;0.70;0.70;;;4.60;99.90;;;;;;5071881;28;20478;-72
2022/01/16 07:57:18;;;;;;;0.60;0.60;;;4.50;99.90;;;;;;5071997;28;20025;-70
2022/01/16 07:59:44;;;;;;;2.15;0.75;;;4.40;99.90;;;;;;5071674;28;20029;-66
2022/01/16 08:02:09;;;;;;;4.03;3.53;;;4.50;99.90;;;;;;5071978;28;20031;-68
2022/01/16 08:04:35;;;;;;;1.77;1.67;;;4.60;99.90;;;;;;5071870;28;20049;-69
2022/01/16 08:07:03;;;;;;;1.10;0.90;;;4.60;99.90;;;;;;5071787;28;20456;-69
2022/01/16 08:09:28;;;;;;;0.70;0.70;;;4.50;99.90;;;;;;5071730;28;20028;-68
2022/01/16 08:11:54;;;;;;;0.60;0.60;;;4.50;99.90;;;;;;5071864;28;20012;-69
2022/01/16 08:14:20;;;;;;;0.85;0.80;;;4.50;99.90;;;;;;5071815;28;20037;-68
2022/01/16 08:16:45;;;;;;;0.65;0.57;;;4.50;99.90;;;;;;5071870;28;20032;-66
2022/01/16 08:19:11;;;;;;;0.75;0.70;;;4.70;99.90;;;;;;5071562;28;20024;-67
2022/01/16 08:21:37;;;;;;;0.60;0.60;;;4.70;99.90;;;;;;5070452;28;20075;-67
2022/01/16 08:24:04;;;;;;;0.65;0.65;;;4.80;99.90;;;;;;5071876;28;20036;-67
2022/01/16 08:26:33;;;;;;;1.25;0.50;;;4.70;99.90;;;;;;5072034;28;20024;-68
2022/01/16 08:28:58;;;;;;;0.50;0.50;;;4.70;99.90;;;;;;5071638;28;20097;-67
2022/01/16 08:31:24;;;;;;;0.80;0.80;;;4.60;99.90;;;;;;5071627;28;20475;-66
2022/01/16 08:33:50;;;;;;;0.57;0.57;;;5.10;99.90;;;;;;5071563;28;20368;-68
2022/01/16 08:36:16;;;;;;;2.45;1.00;;;5.20;99.90;;;;;;5071436;28;20653;-67
2022/01/16 08:38:43;;;;;;;0.90;0.90;;;5.10;99.90;;;;;;5071373;28;20051;-66
2022/01/16 08:41:08;;;;;;;0.50;0.50;;;5.00;99.90;;;;;;5072926;28;20033;-67
2022/01/16 08:43:34;;;;;;;0.73;0.73;;;4.80;99.90;;;;;;5075327;28;20107;-66
2022/01/16 08:46:00;;;;;;;2.85;0.80;;;4.90;99.90;;;;;;5075398;28;20104;-66
2022/01/16 08:48:27;;;;;;;1.17;0.98;;;4.90;99.90;;;;;;5074915;28;20044;-66
2022/01/16 08:50:52;;;;;;;0.98;0.90;;;4.80;99.90;;;;;;5075208;28;20031;-66
2022/01/16 08:53:18;;;;;;;1.52;0.60;;;4.90;99.90;;;;;;5074993;28;20033;-67
2022/01/16 08:55:44;;;;;;;0.75;0.68;;;5.60;99.90;;;;;;5075133;28;20032;-67
2022/01/16 08:58:09;;;;;;;0.63;0.60;;;5.50;99.90;;;;;;5074913;28;20399;-67
2022/01/16 09:00:35;;;;;;;0.70;0.70;;;5.30;99.90;;;;;;5075011;28;20020;-66
2022/01/16 09:03:01;;;;;;;0.75;0.75;;;5.20;99.90;;;;;;5075256;28;20024;-66
2022/01/16 09:05:27;;;;;;;0.90;0.90;;;5.10;99.90;;;;;;5075131;28;20032;-66
2022/01/16 09:07:54;;;;;;;0.93;0.80;;;5.10;99.90;;;;;;5074704;28;20613;-66
2022/01/16 09:10:19;;;;;;;0.95;0.80;;;5.00;99.90;;;;;;5074725;28;20391;-65
2022/01/16 09:12:45;;;;;;;0.70;0.70;;;5.00;99.90;;;;;;5074805;28;20021;-71
2022/01/16 09:15:12;;;;;;;2.38;0.68;;;5.00;99.90;;;;;;5074665;28;20040;-71
2022/01/16 09:17:39;;;;;;;0.60;0.60;;;5.00;99.90;;;;;;5074972;28;20040;-71
2022/01/16 09:20:07;;;;;;;0.50;0.50;;;5.00;99.90;;;;;;5074652;28;20024;-71
2022/01/16 09:22:34;;;;;;;0.98;0.50;;;5.00;99.90;;;;;;5074603;28;20033;-71
2022/01/16 09:24:59;;;;;;;0.73;0.60;;;4.90;99.90;;;;;;5074643;28;20534;-71
2022/01/16 09:27:25;;;;;;;1.08;0.60;;;4.90;99.90;;;;;;5074471;28;20117;-71
2022/01/16 09:29:51;;;;;;;10.63;7.88;;;4.90;99.90;;;;;;5074529;28;20035;-71
2022/01/16 09:32:17;;;;;;;27.27;17.58;;;4.90;99.90;;;;;;5074390;28;20060;-71
2022/01/16 09:34:43;;;;;;;18.48;12.75;;;4.90;99.90;;;;;;5074418;28;20382;-71
2022/01/16 09:37:09;;;;;;;3.75;1.77;;;4.90;99.90;;;;;;5074060;28;20040;-70
2022/01/16 09:39:36;;;;;;;0.73;0.73;;;4.90;99.90;;;;;;5074291;28;20028;-71
2022/01/16 09:42:03;;;;;;;1.00;1.00;;;5.00;99.90;;;;;;5074375;28;20048;-71
2022/01/16 09:44:29;;;;;;;1.42;0.80;;;5.00;99.90;;;;;;5074059;28;20387;-71
2022/01/16 09:46:55;;;;;;;1.13;1.05;;;5.00;99.90;;;;;;5074214;28;20021;-71
2022/01/16 09:49:21;;;;;;;0.70;0.70;;;5.00;99.90;;;;;;5073958;28;20036;-71
2022/01/16 09:51:46;;;;;;;1.90;0.60;;;5.00;99.90;;;;;;5074179;28;20016;-71
2022/01/16 09:54:12;;;;;;;0.50;0.50;;;5.00;99.90;;;;;;5073449;28;20395;-71
2022/01/16 09:56:38;;;;;;;1.17;0.60;;;5.00;99.90;;;;;;5074090;28;20105;-71
2022/01/16 09:59:04;;;;;;;1.42;0.55;;;5.00;99.90;;;;;;5073833;28;20104;-71
2022/01/16 10:01:29;;;;;;;0.82;0.65;;;5.00;99.90;;;;;;5073867;28;20103;-71
2022/01/16 10:03:55;;;;;;;1.90;0.73;;;5.00;99.90;;;;;;5073842;28;20024;-71
2022/01/16 10:06:24;;;;;;;1.27;0.60;;;5.00;99.90;;;;;;5073907;28;20165;-71
2022/01/16 10:08:52;;;;;;;0.65;0.65;;;5.00;99.90;;;;;;5073651;28;20608;-71
2022/01/16 10:11:37;;;;;;;1.40;1.30;;;5.00;99.90;;;;;;5073661;28;20035;-71
2022/01/16 10:16:38;;;;;;;0.75;0.60;;;4.90;99.90;;;;;;5074075;28;20514;-71
2022/01/16 10:19:28;;;;;;;0.68;0.68;;;5.00;99.90;;;;;;5073618;28;20039;-70
2022/01/16 10:22:01;;;;;;;1.17;0.80;;;5.00;99.90;;;;;;5073510;28;20491;-70
2022/01/16 10:24:30;;;;;;;0.60;0.60;;;5.40;99.90;;;;;;5073557;28;20391;-69
2022/01/16 10:27:22;;;;;;;0.50;0.50;;;5.30;99.90;;;;;;5073445;28;20028;-69
2022/01/16 10:29:53;;;;;;;1.23;1.13;;;5.20;99.90;;;;;;5074013;28;20131;-69
2022/01/16 10:32:25;;;;;;;2.42;1.17;;;5.10;99.90;;;;;;5073384;28;20024;-70
2022/01/16 10:35:21;;;;;;;0.70;0.68;;;5.00;99.90;;;;;;5073166;28;20547;-70
2022/01/16 10:37:49;;;;;;;2.92;0.50;;;5.00;99.90;;;;;;5067803;28;20070;-69
2022/01/16 10:40:36;;;;;;;0.50;0.50;;;4.90;99.90;;;;;;5073186;28;20028;-70
2022/01/16 10:43:06;;;;;;;0.82;0.70;;;4.90;99.90;;;;;;5073159;28;20029;-69
2022/01/16 10:45:32;;;;;;;0.60;0.60;;;4.90;99.90;;;;;;5071792;28;20605;-69
2022/01/16 10:48:03;;;;;;;0.50;0.50;;;4.80;99.90;;;;;;5072870;28;20135;-70
2022/01/16 10:50:38;;;;;;;0.60;0.60;;;4.80;99.90;;;;;;5072773;28;20036;-70
2022/01/16 10:53:05;;;;;;;4.45;1.00;;;4.80;99.90;;;;;;5073193;28;20032;-70
2022/01/16 10:55:46;;;;;;;0.50;0.50;;;4.70;99.90;;;;;;5072735;28;20096;-69
2022/01/16 10:58:26;;;;;;;2.08;0.80;;;4.70;99.90;;;;;;5072582;28;20146;-69
2022/01/16 11:01:03;;;;;;;0.70;0.65;;;4.60;99.90;;;;;;5072772;28;20017;-70
2022/01/16 11:03:37;;;;;;;0.57;0.57;;;4.60;99.90;;;;;;5072297;28;20357;-70
2022/01/16 11:06:02;;;;;;;1.38;0.55;;;4.60;99.90;;;;;;5072211;28;20065;-70
2022/01/16 11:08:28;;;;;;;0.50;0.50;;;4.60;99.90;;;;;;5072685;28;20040;-70
2022/01/16 11:10:59;;;;;;;0.68;0.60;;;4.50;99.90;;;;;;5072908;28;20026;-70
2022/01/16 11:13:30;;;;;;;0.68;0.50;;;4.50;99.90;;;;;;5072750;28;20032;-70
2022/01/16 11:16:01;;;;;;;0.75;0.52;;;4.50;99.90;;;;;;5072654;28;20364;-70
2022/01/16 11:18:27;;;;;;;0.47;0.47;;;4.50;99.90;;;;;;5072503;28;20031;-70
2022/01/16 11:26:22;;;;;;;1.75;0.50;;;4.50;99.90;;;;;;5072554;28;20021;-70
2022/01/16 11:28:51;;;;;;;0.50;0.50;;;4.50;99.90;;;;;;5072495;28;20062;-69
2022/01/16 11:31:17;;;;;;;0.65;0.55;;;4.50;99.90;;;;;;5072132;28;20035;-69
2022/01/16 11:33:44;;;;;;;0.80;0.47;;;4.50;99.90;;;;;;5070941;28;20036;-70
2022/01/16 11:36:23;;;;;;;2.17;0.50;;;4.50;99.90;;;;;;5072097;28;20105;-69
2022/01/16 11:38:54;;;;;;;0.57;0.52;;;4.50;99.90;;;;;;5072220;28;20055;-69
2022/01/16 11:41:35;;;;;;;0.50;0.50;;;4.50;99.90;;;;;;5071958;28;20025;-70
2022/01/16 11:44:28;;;;;;;1.35;0.68;;;4.50;99.90;;;;;;5072124;28;20024;-69
2022/01/16 11:47:00;;;;;;;0.50;0.50;;;4.50;99.90;;;;;;5064126;28;20032;-70
2022/01/16 11:49:36;;;;;;;1.63;0.50;;;4.50;99.90;;;;;;5072072;28;20089;-69
2022/01/16 11:52:11;;;;;;;1.75;0.50;;;4.50;99.90;;;;;;5072042;28;20104;-69
2022/01/16 11:54:42;;;;;;;1.58;0.80;;;4.50;99.90;;;;;;5071787;28;20035;-70
2022/01/16 11:57:28;;;;;;;0.85;0.50;;;4.50;99.90;;;;;;5071808;28;20543;-69
2022/01/16 12:00:14;;;;;;;0.57;0.57;;;5.20;99.90;;;;;;5071864;28;20023;-67
2022/01/16 12:02:45;;;;;;;2.47;0.80;;;5.20;99.90;;;;;;5074278;28;20495;-69
2022/01/16 12:05:19;;;;;;;0.40;0.40;;;5.10;99.90;;;;;;5074278;28;20020;-71
2022/01/16 12:07:48;;;;;;;0.43;0.43;;;4.90;99.90;;;;;;5073760;28;20371;-66
2022/01/16 12:10:35;;;;;;;0.45;0.45;;;4.90;99.90;;;;;;5071764;28;20028;-67
2022/01/16 12:13:00;;;;;;;1.40;0.50;;;4.80;99.90;;;;;;5071760;28;20017;-67
2022/01/16 12:15:28;;;;;;;0.45;0.45;;;4.80;99.90;;;;;;5071899;28;20032;-67
2022/01/16 12:17:54;;;;;;;0.60;0.60;;;4.80;99.90;;;;;;5075889;28;20024;-67
2022/01/16 12:20:28;;;;;;;0.50;0.50;;;4.80;99.90;;;;;;5075632;28;20027;-67
2022/01/16 12:23:04;;;;;;;0.90;0.60;;;4.80;99.90;;;;;;5075787;28;20113;-67
2022/01/16 12:25:45;;;;;;;0.47;0.40;;;4.80;99.90;;;;;;5078032;28;20035;-66
2022/01/16 12:28:18;;;;;;;0.70;0.50;;;4.80;99.90;;;;;;5075391;28;20029;-67
2022/01/16 12:30:48;;;;;;;0.40;0.40;;;4.80;99.90;;;;;;5075165;28;20032;-70
2022/01/16 12:33:14;;;;;;;0.93;0.70;;;4.80;99.90;;;;;;5075165;28;20482;-70
2022/01/16 12:35:50;;;;;;;1.40;0.80;;;5.00;99.90;;;;;;5075086;28;20033;-72
2022/01/16 12:38:29;;;;;;;1.05;0.60;;;5.20;99.90;;;;;;5075306;28;20075;-72
2022/01/16 12:41:16;;;;;;;0.45;0.45;;;5.80;99.90;;;;;;5075454;28;20020;-72
2022/01/16 12:44:13;;;;;;;0.75;0.50;;;5.60;99.90;;;;;;5074281;28;20507;-72
2022/01/16 12:46:39;;;;;;;0.82;0.52;;;5.30;99.90;;;;;;5075365;28;20497;-72
2022/01/16 12:49:33;;;;;;;0.50;0.50;;;5.20;99.90;;;;;;5075337;28;20044;-71
2022/01/16 12:51:59;;;;;;;0.50;0.50;;;5.10;99.90;;;;;;5072305;28;20040;-72
2022/01/16 12:54:26;;;;;;;0.52;0.50;;;6.20;99.90;;;;;;5075095;28;20024;-70
2022/01/16 12:56:54;;;;;;;0.57;0.50;;;6.00;99.90;;;;;;5075166;28;20029;-70
2022/01/16 12:59:23;;;;;;;0.40;0.40;;;6.10;99.90;;;;;;5075021;28;20042;-69
2022/01/16 13:01:57;;;;;;;0.85;0.50;;;5.60;99.90;;;;;;5075135;28;20028;-70
2022/01/16 13:04:42;;;;;;;0.73;0.30;;;5.30;99.90;;;;;;5075065;28;20077;-70
2022/01/16 13:07:11;;;;;;;0.75;0.40;;;5.10;99.90;;;;;;5074938;28;20502;-70
2022/01/16 13:09:37;;;;;;;0.75;0.40;;;5.00;99.90;;;;;;5074558;28;20552;-72
2022/01/16 13:12:04;;;;;;;1.17;0.60;;;5.70;99.90;;;;;;5074901;28;20028;-71
2022/01/16 13:14:33;;;;;;;0.50;0.50;;;5.70;99.90;;;;;;5074941;28;20040;-69
2022/01/16 13:17:06;;;;;;;0.40;0.40;;;5.40;99.90;;;;;;5074622;28;20021;-70
2022/01/16 13:19:52;;;;;;;0.50;0.50;;;5.20;99.90;;;;;;5074753;28;20029;-68
2022/01/16 13:22:23;;;;;;;0.85;0.40;;;5.10;99.90;;;;;;5077345;28;20039;-68
2022/01/16 13:25:03;;;;;;;0.50;0.50;;;4.90;99.90;;;;;;5074659;28;20023;-68
2022/01/16 13:27:32;;;;;;;0.55;0.52;;;4.80;99.90;;;;;;5073254;28;20136;-68
2022/01/16 13:30:26;;;;;;;0.50;0.50;;;4.80;99.90;;;;;;5074838;28;20028;-68
2022/01/16 13:33:01;;;;;;;2.17;0.60;;;4.70;99.90;;;;;;5068685;28;20040;-67
2022/01/16 13:35:29;;;;;;;0.50;0.50;;;4.70;99.90;;;;;;5073950;28;20627;-67
2022/01/16 13:38:10;;;;;;;0.50;0.50;;;4.70;99.90;;;;;;5076328;28;20052;-68
2022/01/16 13:40:35;;;;;;;;;;;4.60;99.90;;;;;;5074235;28;20055;-68
2022/01/16 13:43:11;;;;;;;0.35;0.35;;;4.60;99.90;;;;;;5073883;28;19936;-68
2022/01/16 13:45:39;;;;;;;0.40;0.40;;;4.60;99.90;;;;;;5072367;28;20028;-67
2022/01/16 13:48:19;;;;;;;0.50;0.50;;;4.60;99.90;;;;;;5091021;28;20055;-68
2022/01/16 13:51:03;;;;;;;0.50;0.50;;;4.50;99.90;;;;;;5093422;28;20072;-68
2022/01/16 13:53:38;;;;;;;0.55;0.50;;;4.50;99.90;;;;;;5073514;28;20025;-68
2022/01/16 13:56:04;;;;;;;0.60;0.60;;;4.40;99.70;;;;;;5084493;28;20024;-68
2022/01/16 13:58:31;;;;;;;0.50;0.50;;;4.40;98.90;;;;;;5073469;28;20361;-68
2022/01/16 14:01:00;;;;;;;0.40;0.40;;;4.40;98.60;;;;;;5075059;28;20024;-68
2022/01/16 14:03:28;;;;;;;0.47;0.47;;;4.40;94.60;;;;;;5076207;28;20096;-68
2022/01/16 14:05:56;;;;;;;0.40;0.40;;;4.30;95.10;;;;;;5073475;28;20020;-68
2022/01/16 14:08:35;;;;;;;0.50;0.50;;;4.30;95.00;;;;;;5073327;28;20028;-68
2022/01/16 14:11:10;;;;;;;0.50;0.50;;;4.20;92.60;;;;;;5074030;28;20016;-68
2022/01/16 14:13:59;;;;;;;0.50;0.50;;;4.20;93.20;;;;;;5076914;28;20430;-68
2022/01/16 14:16:50;;;;;;;3.03;0.43;;;4.10;92.80;;;;;;5072923;28;20027;-67
2022/01/16 14:19:20;;;;;;;0.50;0.50;;;4.10;92.90;;;;;;5073520;28;20105;-67
2022/01/16 14:22:06;;;;;;;0.90;0.60;;;4.00;93.30;;;;;;5090445;28;20470;-67
2022/01/16 14:24:34;;;;;;;0.40;0.40;;;4.00;94.50;;;;;;5079865;28;20028;-67
2022/01/16 14:27:08;;;;;;;0.50;0.50;;;3.90;95.20;;;;;;5072958;28;20024;-67
2022/01/16 14:29:36;;;;;;;0.50;0.50;;;3.90;94.90;;;;;;5072717;28;20033;-67
2022/01/16 14:32:02;;;;;;;0.60;0.60;;;3.90;94.70;;;;;;5072975;28;20053;-67
2022/01/16 14:34:28;;;;;;;0.50;0.50;;;3.80;94.70;;;;;;5075320;28;20024;-67
2022/01/16 14:36:55;;;;;;;0.57;0.57;;;3.70;94.60;;;;;;5072616;28;20086;-67
2022/01/16 14:39:24;;;;;;;0.50;0.50;;;3.70;95.00;;;;;;5072521;28;20024;-67
2022/01/16 14:41:52;;;;;;;0.60;0.60;;;3.70;94.90;;;;;;5075798;28;20031;-67
2022/01/16 14:44:24;;;;;;;0.82;0.50;;;3.60;95.20;;;;;;5072914;28;20040;-67
2022/01/16 14:46:50;;;;;;;0.80;0.80;;;3.60;94.20;;;;;;5072777;28;20043;-67